sensor_id;sensor_type;location;lat;lon;timestamp;temperature;humidity
21023;DHT22;10669;51.076;3.714;2022-09-13T00:00:51;21.60;1.00
21023;DHT22;10669;51.076;3.714;2022-09-13T00:03:20;22.00;99.90
21023;DHT22;10669;51.076;3.714;2022-09-13T00:05:48;22.20;1.00
21023;DHT22;10669;51.076;3.714;2022-09-13T00:08:17;22.30;99.90
21023;DHT22;10669;51.076;3.714;2022-09-13T00:10:44;22.10;99.90
21023;DHT22;10669;51.076;3.714;2022-09-13T00:13:12;22.00;1.00
21023;DHT22;10669;51.076;3.714;2022-09-13T00:15:47;21.80;1.00
21023;DHT22;10669;51.076;3.714;2022-09-13T00:18:14;21.50;1.00
21023;DHT22;10669;51.076;3.714;2022-09-13T00:20:40;21.40;1.00
21023;DHT22;10669;51.076;3.714;2022-09-13T00:23:05;21.70;1.00
21023;DHT22;10669;51.076;3.714;2022-09-13T00:25:31;21.80;1.00
21023;DHT22;10669;51.076;3.714;2022-09-13T00:27:58;22.20;1.00
21023;DHT22;10669;51.076;3.714;2022-09-13T00:30:26;22.00;1.00
21023;DHT22;10669;51.076;3.714;2022-09-13T00:32:54;22.10;1.00
21023;DHT22;10669;51.076;3.714;2022-09-13T00:35:22;22.10;1.00
21023;DHT22;10669;51.076;3.714;2022-09-13T00:37:51;21.80;1.00
21023;DHT22;10669;51.076;3.714;2022-09-13T00:40:20;21.30;1.00
21023;DHT22;10669;51.076;3.714;2022-09-13T00:42:48;21.10;1.00
21023;DHT22;10669;51.076;3.714;2022-09-13T00:45:19;21.10;1.00
21023;DHT22;10669;51.076;3.714;2022-09-13T00:48:16;21.30;1.00
21023;DHT22;10669;51.076;3.714;2022-09-13T00:50:45;21.30;1.00
21023;DHT22;10669;51.076;3.714;2022-09-13T00:53:21;21.40;1.00
21023;DHT22;10669;51.076;3.714;2022-09-13T00:56:07;21.50;1.00
21023;DHT22;10669;51.076;3.714;2022-09-13T00:59:01;21.50;1.00
21023;DHT22;10669;51.076;3.714;2022-09-13T01:01:37;21.70;1.00
21023;DHT22;10669;51.076;3.714;2022-09-13T01:04:07;21.70;1.00
21023;DHT22;10669;51.076;3.714;2022-09-13T01:06:37;21.60;1.00
21023;DHT22;10669;51.076;3.714;2022-09-13T01:09:06;21.70;1.00
21023;DHT22;10669;51.076;3.714;2022-09-13T01:12:01;21.90;1.00
21023;DHT22;10669;51.076;3.714;2022-09-13T01:14:30;21.60;1.00
21023;DHT22;10669;51.076;3.714;2022-09-13T01:16:57;21.50;1.00
21023;DHT22;10669;51.076;3.714;2022-09-13T01:19:23;21.50;1.00
21023;DHT22;10669;51.076;3.714;2022-09-13T01:25:21;21.30;1.00
21023;DHT22;10669;51.076;3.714;2022-09-13T01:34:18;20.90;1.00
21023;DHT22;10669;51.076;3.714;2022-09-13T01:47:26;21.50;1.00
21023;DHT22;10669;51.076;3.714;2022-09-13T01:50:30;21.50;1.00
21023;DHT22;10669;51.076;3.714;2022-09-13T01:56:01;21.50;1.00
21023;DHT22;10669;51.076;3.714;2022-09-13T02:01:17;21.20;1.00
21023;DHT22;10669;51.076;3.714;2022-09-13T02:04:09;21.10;1.00
21023;DHT22;10669;51.076;3.714;2022-09-13T02:07:29;21.30;1.00
21023;DHT22;10669;51.076;3.714;2022-09-13T02:09:42;21.20;1.00
21023;DHT22;10669;51.076;3.714;2022-09-13T02:12:17;21.30;1.00
21023;DHT22;10669;51.076;3.714;2022-09-13T02:14:47;21.50;1.00
21023;DHT22;10669;51.076;3.714;2022-09-13T02:17:23;21.50;1.00
21023;DHT22;10669;51.076;3.714;2022-09-13T02:20:12;21.60;1.00
21023;DHT22;10669;51.076;3.714;2022-09-13T02:22:46;21.60;1.00
21023;DHT22;10669;51.076;3.714;2022-09-13T02:25:18;21.60;1.00
21023;DHT22;10669;51.076;3.714;2022-09-13T02:27:53;21.60;1.00
21023;DHT22;10669;51.076;3.714;2022-09-13T02:30:24;21.10;1.00
21023;DHT22;10669;51.076;3.714;2022-09-13T02:33:00;21.00;1.00
21023;DHT22;10669;51.076;3.714;2022-09-13T02:35:44;21.10;1.00
21023;DHT22;10669;51.076;3.714;2022-09-13T02:38:21;21.10;1.00
21023;DHT22;10669;51.076;3.714;2022-09-13T02:40:56;20.90;1.00
21023;DHT22;10669;51.076;3.714;2022-09-13T02:43:50;20.60;1.00
21023;DHT22;10669;51.076;3.714;2022-09-13T02:46:39;20.60;1.00
21023;DHT22;10669;51.076;3.714;2022-09-13T02:49:22;20.50;1.00
21023;DHT22;10669;51.076;3.714;2022-09-13T02:54:57;20.80;1.00
21023;DHT22;10669;51.076;3.714;2022-09-13T02:57:54;20.90;1.00
21023;DHT22;10669;51.076;3.714;2022-09-13T03:00:26;20.70;1.00
21023;DHT22;10669;51.076;3.714;2022-09-13T03:02:56;20.40;1.00
21023;DHT22;10669;51.076;3.714;2022-09-13T03:05:23;20.40;1.00
21023;DHT22;10669;51.076;3.714;2022-09-13T03:07:49;20.30;1.00
21023;DHT22;10669;51.076;3.714;2022-09-13T03:10:16;20.50;1.00
21023;DHT22;10669;51.076;3.714;2022-09-13T03:16:05;20.80;1.00
21023;DHT22;10669;51.076;3.714;2022-09-13T03:18:40;20.60;1.00
21023;DHT22;10669;51.076;3.714;2022-09-13T03:22:05;20.70;1.00
21023;DHT22;10669;51.076;3.714;2022-09-13T03:24:22;20.50;1.00
21023;DHT22;10669;51.076;3.714;2022-09-13T03:29:35;20.90;1.00
21023;DHT22;10669;51.076;3.714;2022-09-13T03:32:12;21.00;1.00
21023;DHT22;10669;51.076;3.714;2022-09-13T03:37:33;20.80;1.00
21023;DHT22;10669;51.076;3.714;2022-09-13T03:40:12;20.50;1.00
21023;DHT22;10669;51.076;3.714;2022-09-13T03:45:35;20.60;1.00
21023;DHT22;10669;51.076;3.714;2022-09-13T03:48:04;20.40;1.00
21023;DHT22;10669;51.076;3.714;2022-09-13T03:50:34;20.60;1.00
21023;DHT22;10669;51.076;3.714;2022-09-13T03:53:09;20.70;1.00
21023;DHT22;10669;51.076;3.714;2022-09-13T03:55:38;20.60;1.00
21023;DHT22;10669;51.076;3.714;2022-09-13T03:58:13;20.30;1.00
21023;DHT22;10669;51.076;3.714;2022-09-13T04:00:40;20.00;1.00
21023;DHT22;10669;51.076;3.714;2022-09-13T04:03:07;20.40;1.00
21023;DHT22;10669;51.076;3.714;2022-09-13T04:05:34;20.80;1.00
21023;DHT22;10669;51.076;3.714;2022-09-13T04:08:02;20.90;1.00
21023;DHT22;10669;51.076;3.714;2022-09-13T04:10:29;21.00;1.00
21023;DHT22;10669;51.076;3.714;2022-09-13T04:12:58;21.10;1.00
21023;DHT22;10669;51.076;3.714;2022-09-13T04:15:25;21.20;1.00
21023;DHT22;10669;51.076;3.714;2022-09-13T04:17:57;21.10;1.00
21023;DHT22;10669;51.076;3.714;2022-09-13T04:20:23;21.10;1.00
21023;DHT22;10669;51.076;3.714;2022-09-13T04:22:55;21.00;1.00
21023;DHT22;10669;51.076;3.714;2022-09-13T04:25:22;20.90;1.00
21023;DHT22;10669;51.076;3.714;2022-09-13T04:27:53;20.60;1.00
21023;DHT22;10669;51.076;3.714;2022-09-13T04:30:19;20.50;1.00
21023;DHT22;10669;51.076;3.714;2022-09-13T04:32:48;20.60;1.00
21023;DHT22;10669;51.076;3.714;2022-09-13T04:35:14;20.70;1.00
21023;DHT22;10669;51.076;3.714;2022-09-13T04:37:42;20.80;1.00
21023;DHT22;10669;51.076;3.714;2022-09-13T04:40:09;20.60;1.00
21023;DHT22;10669;51.076;3.714;2022-09-13T04:42:35;20.60;1.00
21023;DHT22;10669;51.076;3.714;2022-09-13T04:45:04;20.80;1.00
21023;DHT22;10669;51.076;3.714;2022-09-13T04:47:32;20.80;1.00
21023;DHT22;10669;51.076;3.714;2022-09-13T04:50:00;20.70;1.00
21023;DHT22;10669;51.076;3.714;2022-09-13T04:52:26;20.30;1.00
21023;DHT22;10669;51.076;3.714;2022-09-13T04:54:53;20.10;1.00
21023;DHT22;10669;51.076;3.714;2022-09-13T04:57:20;20.10;1.00
21023;DHT22;10669;51.076;3.714;2022-09-13T04:59:47;20.20;1.00
21023;DHT22;10669;51.076;3.714;2022-09-13T05:02:15;20.30;1.00
21023;DHT22;10669;51.076;3.714;2022-09-13T05:04:40;20.50;1.00
21023;DHT22;10669;51.076;3.714;2022-09-13T05:07:08;20.70;1.00
21023;DHT22;10669;51.076;3.714;2022-09-13T05:09:34;21.00;1.00
21023;DHT22;10669;51.076;3.714;2022-09-13T05:12:00;20.80;1.00
21023;DHT22;10669;51.076;3.714;2022-09-13T05:14:29;20.20;1.00
21023;DHT22;10669;51.076;3.714;2022-09-13T05:16:56;19.80;1.00
21023;DHT22;10669;51.076;3.714;2022-09-13T05:19:21;19.80;1.00
21023;DHT22;10669;51.076;3.714;2022-09-13T05:21:48;20.30;1.00
21023;DHT22;10669;51.076;3.714;2022-09-13T05:24:15;20.70;1.00
21023;DHT22;10669;51.076;3.714;2022-09-13T05:26:41;20.80;1.00
21023;DHT22;10669;51.076;3.714;2022-09-13T05:29:08;20.80;1.00
21023;DHT22;10669;51.076;3.714;2022-09-13T05:31:36;20.60;1.00
21023;DHT22;10669;51.076;3.714;2022-09-13T05:34:10;20.30;1.00
21023;DHT22;10669;51.076;3.714;2022-09-13T05:36:37;20.20;1.00
21023;DHT22;10669;51.076;3.714;2022-09-13T05:39:03;20.30;1.00
21023;DHT22;10669;51.076;3.714;2022-09-13T05:41:30;20.50;1.00
21023;DHT22;10669;51.076;3.714;2022-09-13T05:43:57;20.80;1.00
21023;DHT22;10669;51.076;3.714;2022-09-13T05:46:22;20.80;1.00
21023;DHT22;10669;51.076;3.714;2022-09-13T05:48:48;20.80;1.00
21023;DHT22;10669;51.076;3.714;2022-09-13T05:51:19;20.80;1.00
21023;DHT22;10669;51.076;3.714;2022-09-13T05:53:47;20.90;1.00
21023;DHT22;10669;51.076;3.714;2022-09-13T05:56:17;20.80;1.00
21023;DHT22;10669;51.076;3.714;2022-09-13T05:58:45;20.70;1.00
21023;DHT22;10669;51.076;3.714;2022-09-13T06:01:15;20.90;1.00
21023;DHT22;10669;51.076;3.714;2022-09-13T06:03:42;21.10;1.00
21023;DHT22;10669;51.076;3.714;2022-09-13T06:06:10;21.10;1.00
21023;DHT22;10669;51.076;3.714;2022-09-13T06:08:35;21.10;1.00
21023;DHT22;10669;51.076;3.714;2022-09-13T06:11:07;20.90;1.00
21023;DHT22;10669;51.076;3.714;2022-09-13T06:13:33;21.00;1.00
21023;DHT22;10669;51.076;3.714;2022-09-13T06:16:03;21.30;1.00
21023;DHT22;10669;51.076;3.714;2022-09-13T06:18:30;21.20;1.00
21023;DHT22;10669;51.076;3.714;2022-09-13T06:21:06;20.90;1.00
21023;DHT22;10669;51.076;3.714;2022-09-13T06:23:33;20.90;1.00
21023;DHT22;10669;51.076;3.714;2022-09-13T06:26:05;21.20;1.00
21023;DHT22;10669;51.076;3.714;2022-09-13T06:28:32;21.20;1.00
21023;DHT22;10669;51.076;3.714;2022-09-13T06:33:28;21.10;1.00
21023;DHT22;10669;51.076;3.714;2022-09-13T06:35:54;20.90;1.00
21023;DHT22;10669;51.076;3.714;2022-09-13T06:38:21;20.50;1.00
21023;DHT22;10669;51.076;3.714;2022-09-13T06:40:58;20.30;1.00
21023;DHT22;10669;51.076;3.714;2022-09-13T06:43:25;20.10;1.00
21023;DHT22;10669;51.076;3.714;2022-09-13T06:45:52;20.10;1.00
21023;DHT22;10669;51.076;3.714;2022-09-13T06:48:19;20.50;1.00
21023;DHT22;10669;51.076;3.714;2022-09-13T06:50:47;20.80;1.00
21023;DHT22;10669;51.076;3.714;2022-09-13T06:53:15;21.30;1.00
21023;DHT22;10669;51.076;3.714;2022-09-13T06:55:42;21.40;1.00
21023;DHT22;10669;51.076;3.714;2022-09-13T06:58:08;21.40;1.00
21023;DHT22;10669;51.076;3.714;2022-09-13T07:00:33;21.50;1.00
21023;DHT22;10669;51.076;3.714;2022-09-13T07:02:59;21.80;1.00
21023;DHT22;10669;51.076;3.714;2022-09-13T07:05:24;22.00;1.00
21023;DHT22;10669;51.076;3.714;2022-09-13T07:07:52;22.20;1.00
21023;DHT22;10669;51.076;3.714;2022-09-13T07:10:19;22.20;1.00
21023;DHT22;10669;51.076;3.714;2022-09-13T07:12:45;22.40;1.00
21023;DHT22;10669;51.076;3.714;2022-09-13T07:15:13;22.50;1.00
21023;DHT22;10669;51.076;3.714;2022-09-13T07:17:38;22.50;1.00
21023;DHT22;10669;51.076;3.714;2022-09-13T07:20:05;22.80;1.00
21023;DHT22;10669;51.076;3.714;2022-09-13T07:22:32;22.80;1.00
21023;DHT22;10669;51.076;3.714;2022-09-13T07:24:58;22.90;1.00
21023;DHT22;10669;51.076;3.714;2022-09-13T07:27:26;22.80;1.00
21023;DHT22;10669;51.076;3.714;2022-09-13T07:29:52;22.50;1.00
21023;DHT22;10669;51.076;3.714;2022-09-13T07:32:19;22.40;1.00
21023;DHT22;10669;51.076;3.714;2022-09-13T07:34:47;22.20;1.00
21023;DHT22;10669;51.076;3.714;2022-09-13T07:37:13;22.40;1.00
21023;DHT22;10669;51.076;3.714;2022-09-13T07:39:41;22.50;1.00
21023;DHT22;10669;51.076;3.714;2022-09-13T07:42:06;22.70;1.00
21023;DHT22;10669;51.076;3.714;2022-09-13T07:44:33;22.90;1.00
21023;DHT22;10669;51.076;3.714;2022-09-13T07:46:58;23.10;1.00
21023;DHT22;10669;51.076;3.714;2022-09-13T07:49:24;23.00;1.00
21023;DHT22;10669;51.076;3.714;2022-09-13T07:51:51;23.00;1.00
21023;DHT22;10669;51.076;3.714;2022-09-13T07:54:20;23.10;1.00
21023;DHT22;10669;51.076;3.714;2022-09-13T07:56:47;23.20;1.00
21023;DHT22;10669;51.076;3.714;2022-09-13T07:59:15;23.30;1.00
21023;DHT22;10669;51.076;3.714;2022-09-13T08:01:46;23.60;99.90
21023;DHT22;10669;51.076;3.714;2022-09-13T08:04:17;23.40;1.00
21023;DHT22;10669;51.076;3.714;2022-09-13T08:06:45;23.40;1.00
21023;DHT22;10669;51.076;3.714;2022-09-13T08:09:13;23.50;1.00
21023;DHT22;10669;51.076;3.714;2022-09-13T08:11:44;23.80;99.90
21023;DHT22;10669;51.076;3.714;2022-09-13T08:14:14;23.50;1.00
21023;DHT22;10669;51.076;3.714;2022-09-13T08:16:41;23.20;1.00
21023;DHT22;10669;51.076;3.714;2022-09-13T08:19:10;23.20;1.00
21023;DHT22;10669;51.076;3.714;2022-09-13T08:21:38;23.20;1.00
21023;DHT22;10669;51.076;3.714;2022-09-13T08:24:05;23.00;1.00
21023;DHT22;10669;51.076;3.714;2022-09-13T08:26:36;23.00;1.00
21023;DHT22;10669;51.076;3.714;2022-09-13T08:29:04;23.40;1.00
21023;DHT22;10669;51.076;3.714;2022-09-13T08:31:34;23.60;1.00
21023;DHT22;10669;51.076;3.714;2022-09-13T08:33:59;23.60;1.00
21023;DHT22;10669;51.076;3.714;2022-09-13T08:36:29;23.70;1.00
21023;DHT22;10669;51.076;3.714;2022-09-13T08:38:59;23.70;1.00
21023;DHT22;10669;51.076;3.714;2022-09-13T08:44:36;23.50;1.00
21023;DHT22;10669;51.076;3.714;2022-09-13T08:49:35;22.90;1.00
21023;DHT22;10669;51.076;3.714;2022-09-13T08:52:29;23.10;1.00
21023;DHT22;10669;51.076;3.714;2022-09-13T08:55:14;22.90;1.00
21023;DHT22;10669;51.076;3.714;2022-09-13T08:57:56;22.80;1.00
21023;DHT22;10669;51.076;3.714;2022-09-13T09:00:35;23.10;1.00
21023;DHT22;10669;51.076;3.714;2022-09-13T09:05:49;23.80;1.00
21023;DHT22;10669;51.076;3.714;2022-09-13T09:08:39;24.10;1.00
21023;DHT22;10669;51.076;3.714;2022-09-13T09:11:19;24.00;1.00
21023;DHT22;10669;51.076;3.714;2022-09-13T09:14:40;24.20;99.90
21023;DHT22;10669;51.076;3.714;2022-09-13T09:16:48;24.20;1.00
21023;DHT22;10669;51.076;3.714;2022-09-13T09:19:17;23.90;1.00
21023;DHT22;10669;51.076;3.714;2022-09-13T09:21:48;24.00;1.00
21023;DHT22;10669;51.076;3.714;2022-09-13T09:24:22;23.90;1.00
21023;DHT22;10669;51.076;3.714;2022-09-13T09:26:52;23.80;1.00
21023;DHT22;10669;51.076;3.714;2022-09-13T09:29:20;23.90;1.00
21023;DHT22;10669;51.076;3.714;2022-09-13T09:32:11;24.00;1.00
21023;DHT22;10669;51.076;3.714;2022-09-13T09:35:11;24.40;1.00
21023;DHT22;10669;51.076;3.714;2022-09-13T09:37:44;24.70;1.00
21023;DHT22;10669;51.076;3.714;2022-09-13T09:40:12;24.10;1.00
21023;DHT22;10669;51.076;3.714;2022-09-13T09:42:44;23.90;1.00
21023;DHT22;10669;51.076;3.714;2022-09-13T09:45:32;23.90;1.00
21023;DHT22;10669;51.076;3.714;2022-09-13T09:48:05;23.90;1.00
21023;DHT22;10669;51.076;3.714;2022-09-13T09:50:42;23.60;1.00
21023;DHT22;10669;51.076;3.714;2022-09-13T09:58:38;23.40;1.00
21023;DHT22;10669;51.076;3.714;2022-09-13T10:06:24;24.30;1.00
21023;DHT22;10669;51.076;3.714;2022-09-13T10:11:21;24.30;1.00
21023;DHT22;10669;51.076;3.714;2022-09-13T10:14:01;24.70;1.00
21023;DHT22;10669;51.076;3.714;2022-09-13T10:16:30;25.00;99.90
21023;DHT22;10669;51.076;3.714;2022-09-13T10:19:24;25.40;99.90
21023;DHT22;10669;51.076;3.714;2022-09-13T10:22:11;25.70;1.00
21023;DHT22;10669;51.076;3.714;2022-09-13T10:24:37;25.90;1.00
21023;DHT22;10669;51.076;3.714;2022-09-13T10:27:19;25.80;1.00
21023;DHT22;10669;51.076;3.714;2022-09-13T10:29:50;25.50;99.90
21023;DHT22;10669;51.076;3.714;2022-09-13T10:32:20;25.70;99.90
21023;DHT22;10669;51.076;3.714;2022-09-13T10:34:48;25.60;1.00
21023;DHT22;10669;51.076;3.714;2022-09-13T10:37:28;25.10;99.90
21023;DHT22;10669;51.076;3.714;2022-09-13T10:42:24;25.30;1.00
21023;DHT22;10669;51.076;3.714;2022-09-13T10:45:00;25.40;99.90
21023;DHT22;10669;51.076;3.714;2022-09-13T10:48:03;25.60;38.20
21023;DHT22;10669;51.076;3.714;2022-09-13T10:50:30;25.70;99.90
21023;DHT22;10669;51.076;3.714;2022-09-13T10:52:58;25.60;99.90
21023;DHT22;10669;51.076;3.714;2022-09-13T10:55:29;25.00;1.00
21023;DHT22;10669;51.076;3.714;2022-09-13T11:03:44;25.00;1.00
21023;DHT22;10669;51.076;3.714;2022-09-13T11:11:25;25.50;99.90
21023;DHT22;10669;51.076;3.714;2022-09-13T11:14:09;25.60;1.00
21023;DHT22;10669;51.076;3.714;2022-09-13T11:17:42;26.00;1.00
21023;DHT22;10669;51.076;3.714;2022-09-13T11:22:44;25.50;1.00
21023;DHT22;10669;51.076;3.714;2022-09-13T11:28:27;25.60;97.70
21023;DHT22;10669;51.076;3.714;2022-09-13T11:31:15;25.90;2.60
21023;DHT22;10669;51.076;3.714;2022-09-13T11:39:42;25.90;1.00
21023;DHT22;10669;51.076;3.714;2022-09-13T11:45:28;25.50;1.00
21023;DHT22;10669;51.076;3.714;2022-09-13T11:50:49;25.60;1.00
21023;DHT22;10669;51.076;3.714;2022-09-13T11:56:13;25.70;99.90
21023;DHT22;10669;51.076;3.714;2022-09-13T11:58:53;26.10;99.90
21023;DHT22;10669;51.076;3.714;2022-09-13T12:01:37;26.00;22.70
21023;DHT22;10669;51.076;3.714;2022-09-13T12:04:10;25.90;1.00
21023;DHT22;10669;51.076;3.714;2022-09-13T12:06:45;25.60;99.90
21023;DHT22;10669;51.076;3.714;2022-09-13T12:11:47;25.80;15.40
21023;DHT22;10669;51.076;3.714;2022-09-13T12:14:22;25.50;99.90
21023;DHT22;10669;51.076;3.714;2022-09-13T12:16:52;25.50;99.90
21023;DHT22;10669;51.076;3.714;2022-09-13T12:19:24;25.70;1.00
21023;DHT22;10669;51.076;3.714;2022-09-13T12:21:52;25.70;1.00
21023;DHT22;10669;51.076;3.714;2022-09-13T12:27:23;24.70;1.00
21023;DHT22;10669;51.076;3.714;2022-09-13T12:30:02;24.40;1.00
21023;DHT22;10669;51.076;3.714;2022-09-13T12:32:32;24.60;1.00
21023;DHT22;10669;51.076;3.714;2022-09-13T12:35:05;24.60;1.00
21023;DHT22;10669;51.076;3.714;2022-09-13T12:43:11;24.40;1.00
21023;DHT22;10669;51.076;3.714;2022-09-13T12:46:13;24.80;1.00
21023;DHT22;10669;51.076;3.714;2022-09-13T12:56:57;24.80;1.00
21023;DHT22;10669;51.076;3.714;2022-09-13T13:02:26;24.40;1.00
21023;DHT22;10669;51.076;3.714;2022-09-13T13:05:02;23.90;1.00
21023;DHT22;10669;51.076;3.714;2022-09-13T13:07:33;23.80;1.00
21023;DHT22;10669;51.076;3.714;2022-09-13T13:09:59;24.10;1.00
21023;DHT22;10669;51.076;3.714;2022-09-13T13:12:37;24.30;1.00
21023;DHT22;10669;51.076;3.714;2022-09-13T13:17:53;24.70;1.00
21023;DHT22;10669;51.076;3.714;2022-09-13T13:23:33;24.70;1.00
21023;DHT22;10669;51.076;3.714;2022-09-13T13:34:24;25.80;1.00
21023;DHT22;10669;51.076;3.714;2022-09-13T13:36:59;25.80;1.00
21023;DHT22;10669;51.076;3.714;2022-09-13T13:42:11;25.70;1.00
21023;DHT22;10669;51.076;3.714;2022-09-13T13:58:00;24.40;1.00
21023;DHT22;10669;51.076;3.714;2022-09-13T14:00:29;24.20;1.00
21023;DHT22;10669;51.076;3.714;2022-09-13T14:03:05;24.10;1.00
21023;DHT22;10669;51.076;3.714;2022-09-13T14:08:48;23.80;1.00
21023;DHT22;10669;51.076;3.714;2022-09-13T14:14:50;23.60;16.40
21023;DHT22;10669;51.076;3.714;2022-09-13T14:20:15;23.30;25.40
21023;DHT22;10669;51.076;3.714;2022-09-13T14:22:41;23.50;9.20
21023;DHT22;10669;51.076;3.714;2022-09-13T14:27:55;23.80;12.90
21023;DHT22;10669;51.076;3.714;2022-09-13T14:30:35;24.00;1.00
21023;DHT22;10669;51.076;3.714;2022-09-13T14:33:02;24.10;1.00
21023;DHT22;10669;51.076;3.714;2022-09-13T14:35:33;23.40;2.70
21023;DHT22;10669;51.076;3.714;2022-09-13T14:40:36;23.40;30.60
21023;DHT22;10669;51.076;3.714;2022-09-13T14:43:16;23.70;18.20
21023;DHT22;10669;51.076;3.714;2022-09-13T14:45:44;23.90;8.40
21023;DHT22;10669;51.076;3.714;2022-09-13T14:48:31;23.80;1.00
21023;DHT22;10669;51.076;3.714;2022-09-13T14:51:03;23.60;20.70
21023;DHT22;10669;51.076;3.714;2022-09-13T14:53:33;23.80;18.00
21023;DHT22;10669;51.076;3.714;2022-09-13T14:56:28;23.60;27.40
21023;DHT22;10669;51.076;3.714;2022-09-13T14:59:00;23.50;21.20
21023;DHT22;10669;51.076;3.714;2022-09-13T15:01:30;23.50;37.70
21023;DHT22;10669;51.076;3.714;2022-09-13T15:03:58;23.80;25.10
21023;DHT22;10669;51.076;3.714;2022-09-13T15:06:30;24.00;22.90
21023;DHT22;10669;51.076;3.714;2022-09-13T15:09:14;24.10;7.60
21023;DHT22;10669;51.076;3.714;2022-09-13T15:14:35;23.30;40.20
21023;DHT22;10669;51.076;3.714;2022-09-13T15:17:09;23.40;36.30
21023;DHT22;10669;51.076;3.714;2022-09-13T15:19:40;23.40;42.30
21023;DHT22;10669;51.076;3.714;2022-09-13T15:22:23;23.40;36.10
21023;DHT22;10669;51.076;3.714;2022-09-13T15:24:57;23.20;32.90
21023;DHT22;10669;51.076;3.714;2022-09-13T15:27:30;23.20;40.90
21023;DHT22;10669;51.076;3.714;2022-09-13T15:30:03;23.20;32.40
21023;DHT22;10669;51.076;3.714;2022-09-13T15:32:39;23.30;42.20
21023;DHT22;10669;51.076;3.714;2022-09-13T15:35:28;23.50;32.30
21023;DHT22;10669;51.076;3.714;2022-09-13T15:37:59;23.60;22.90
21023;DHT22;10669;51.076;3.714;2022-09-13T15:40:41;23.40;36.70
21023;DHT22;10669;51.076;3.714;2022-09-13T15:43:08;23.20;38.60
21023;DHT22;10669;51.076;3.714;2022-09-13T15:45:34;23.40;33.70
21023;DHT22;10669;51.076;3.714;2022-09-13T15:48:01;23.00;37.50
21023;DHT22;10669;51.076;3.714;2022-09-13T15:50:28;22.80;48.70
21023;DHT22;10669;51.076;3.714;2022-09-13T15:52:57;22.60;53.90
21023;DHT22;10669;51.076;3.714;2022-09-13T15:55:24;22.60;60.40
21023;DHT22;10669;51.076;3.714;2022-09-13T15:57:51;22.50;57.70
21023;DHT22;10669;51.076;3.714;2022-09-13T16:00:20;22.40;62.60
21023;DHT22;10669;51.076;3.714;2022-09-13T16:02:46;22.30;70.60
21023;DHT22;10669;51.076;3.714;2022-09-13T16:05:12;22.40;71.60
21023;DHT22;10669;51.076;3.714;2022-09-13T16:07:39;22.30;63.10
21023;DHT22;10669;51.076;3.714;2022-09-13T16:10:34;22.00;76.50
21023;DHT22;10669;51.076;3.714;2022-09-13T16:13:00;22.20;78.50
21023;DHT22;10669;51.076;3.714;2022-09-13T16:15:25;22.40;63.80
21023;DHT22;10669;51.076;3.714;2022-09-13T16:17:52;22.50;58.10
21023;DHT22;10669;51.076;3.714;2022-09-13T16:20:18;22.30;48.70
21023;DHT22;10669;51.076;3.714;2022-09-13T16:22:46;21.90;64.30
21023;DHT22;10669;51.076;3.714;2022-09-13T16:25:14;22.00;60.90
21023;DHT22;10669;51.076;3.714;2022-09-13T16:27:41;22.00;71.50
21023;DHT22;10669;51.076;3.714;2022-09-13T16:30:10;21.80;76.50
21023;DHT22;10669;51.076;3.714;2022-09-13T16:32:37;21.60;81.90
21023;DHT22;10669;51.076;3.714;2022-09-13T16:35:03;21.70;84.90
21023;DHT22;10669;51.076;3.714;2022-09-13T16:37:28;21.80;80.70
21023;DHT22;10669;51.076;3.714;2022-09-13T16:39:57;22.10;69.80
21023;DHT22;10669;51.076;3.714;2022-09-13T16:42:23;22.20;60.10
21023;DHT22;10669;51.076;3.714;2022-09-13T16:44:49;22.40;56.20
21023;DHT22;10669;51.076;3.714;2022-09-13T16:47:17;22.50;49.30
21023;DHT22;10669;51.076;3.714;2022-09-13T16:49:45;22.60;39.00
21023;DHT22;10669;51.076;3.714;2022-09-13T16:52:11;22.70;32.30
21023;DHT22;10669;51.076;3.714;2022-09-13T16:54:38;22.40;27.10
21023;DHT22;10669;51.076;3.714;2022-09-13T16:57:05;21.60;54.90
21023;DHT22;10669;51.076;3.714;2022-09-13T16:59:32;21.30;52.40
21023;DHT22;10669;51.076;3.714;2022-09-13T17:01:59;21.00;75.00
21023;DHT22;10669;51.076;3.714;2022-09-13T17:04:25;21.00;74.00
21023;DHT22;10669;51.076;3.714;2022-09-13T17:06:51;21.10;67.70
21023;DHT22;10669;51.076;3.714;2022-09-13T17:09:17;21.30;66.50
21023;DHT22;10669;51.076;3.714;2022-09-13T17:11:48;21.50;56.70
21023;DHT22;10669;51.076;3.714;2022-09-13T17:14:15;21.70;47.10
21023;DHT22;10669;51.076;3.714;2022-09-13T17:16:53;21.60;48.70
21023;DHT22;10669;51.076;3.714;2022-09-13T17:19:25;21.60;52.40
21023;DHT22;10669;51.076;3.714;2022-09-13T17:21:52;21.70;39.90
21023;DHT22;10669;51.076;3.714;2022-09-13T17:24:18;21.80;37.30
21023;DHT22;10669;51.076;3.714;2022-09-13T17:26:44;21.60;39.00
21023;DHT22;10669;51.076;3.714;2022-09-13T17:29:14;21.40;55.10
21023;DHT22;10669;51.076;3.714;2022-09-13T17:31:41;21.50;58.80
21023;DHT22;10669;51.076;3.714;2022-09-13T17:34:08;21.30;61.60
21023;DHT22;10669;51.076;3.714;2022-09-13T17:36:36;21.10;52.80
21023;DHT22;10669;51.076;3.714;2022-09-13T17:39:02;20.70;72.60
21023;DHT22;10669;51.076;3.714;2022-09-13T17:41:29;20.40;66.90
21023;DHT22;10669;51.076;3.714;2022-09-13T17:43:55;20.20;76.00
21023;DHT22;10669;51.076;3.714;2022-09-13T17:46:23;19.90;79.10
21023;DHT22;10669;51.076;3.714;2022-09-13T17:48:51;19.70;88.60
21023;DHT22;10669;51.076;3.714;2022-09-13T17:51:20;19.70;93.00
21023;DHT22;10669;51.076;3.714;2022-09-13T17:53:53;19.80;90.70
21023;DHT22;10669;51.076;3.714;2022-09-13T17:56:23;19.80;90.70
21023;DHT22;10669;51.076;3.714;2022-09-13T17:58:54;19.70;91.80
21023;DHT22;10669;51.076;3.714;2022-09-13T18:01:20;19.80;90.30
21023;DHT22;10669;51.076;3.714;2022-09-13T18:03:47;19.90;84.90
21023;DHT22;10669;51.076;3.714;2022-09-13T18:06:12;19.70;78.80
21023;DHT22;10669;51.076;3.714;2022-09-13T18:08:39;19.60;86.90
21023;DHT22;10669;51.076;3.714;2022-09-13T18:11:08;19.60;91.70
21023;DHT22;10669;51.076;3.714;2022-09-13T18:13:37;19.80;90.50
21023;DHT22;10669;51.076;3.714;2022-09-13T18:16:09;19.90;90.70
21023;DHT22;10669;51.076;3.714;2022-09-13T18:18:36;20.10;83.20
21023;DHT22;10669;51.076;3.714;2022-09-13T18:21:05;20.30;71.50
21023;DHT22;10669;51.076;3.714;2022-09-13T18:23:33;20.40;68.90
21023;DHT22;10669;51.076;3.714;2022-09-13T18:26:01;20.60;53.60
21023;DHT22;10669;51.076;3.714;2022-09-13T18:28:28;20.50;39.40
21023;DHT22;10669;51.076;3.714;2022-09-13T18:30:58;20.20;53.80
21023;DHT22;10669;51.076;3.714;2022-09-13T18:33:25;20.30;49.60
21023;DHT22;10669;51.076;3.714;2022-09-13T18:36:05;20.40;45.60
21023;DHT22;10669;51.076;3.714;2022-09-13T18:38:37;20.40;43.30
21023;DHT22;10669;51.076;3.714;2022-09-13T18:41:08;20.70;36.70
21023;DHT22;10669;51.076;3.714;2022-09-13T18:43:35;20.60;22.50
21023;DHT22;10669;51.076;3.714;2022-09-13T18:46:07;20.30;28.70
21023;DHT22;10669;51.076;3.714;2022-09-13T18:48:36;20.20;41.10
21023;DHT22;10669;51.076;3.714;2022-09-13T18:51:03;20.10;37.30
21023;DHT22;10669;51.076;3.714;2022-09-13T18:53:29;20.20;40.30
21023;DHT22;10669;51.076;3.714;2022-09-13T18:56:00;20.00;43.40